sensor_id;sensor_type;location;lat;lon;timestamp;P1;durP1;ratioP1;P2;durP2;ratioP2
65053;SDS011;51639;47.828;35.038;2023-03-03T00:11:24;14.63;;;6.70;;
65053;SDS011;51639;47.828;35.038;2023-03-03T00:26:30;14.23;;;6.80;;
65053;SDS011;51639;47.828;35.038;2023-03-03T00:41:37;13.43;;;6.20;;
65053;SDS011;51639;47.828;35.038;2023-03-03T00:56:40;13.20;;;5.83;;
65053;SDS011;51639;47.828;35.038;2023-03-03T01:11:42;12.23;;;5.57;;
65053;SDS011;51639;47.828;35.038;2023-03-03T01:26:44;15.60;;;8.33;;
65053;SDS011;51639;47.828;35.038;2023-03-03T01:41:45;11.77;;;6.73;;
65053;SDS011;51639;47.828;35.038;2023-03-03T01:56:47;13.77;;;6.30;;
65053;SDS011;51639;47.828;35.038;2023-03-03T02:11:52;15.90;;;7.57;;
65053;SDS011;51639;47.828;35.038;2023-03-03T02:26:57;15.07;;;7.80;;
65053;SDS011;51639;47.828;35.038;2023-03-03T02:42:05;10.87;;;6.57;;
65053;SDS011;51639;47.828;35.038;2023-03-03T02:57:29;11.23;;;5.63;;
65053;SDS011;51639;47.828;35.038;2023-03-03T03:12:31;9.60;;;5.67;;
65053;SDS011;51639;47.828;35.038;2023-03-03T03:27:33;13.67;;;6.67;;
65053;SDS011;51639;47.828;35.038;2023-03-03T03:42:34;23.13;;;12.63;;
65053;SDS011;51639;47.828;35.038;2023-03-03T03:57:37;29.20;;;14.77;;
65053;SDS011;51639;47.828;35.038;2023-03-03T04:12:39;23.53;;;14.30;;
65053;SDS011;51639;47.828;35.038;2023-03-03T04:27:42;20.33;;;10.17;;
65053;SDS011;51639;47.828;35.038;2023-03-03T04:42:44;20.10;;;9.20;;
65053;SDS011;51639;47.828;35.038;2023-03-03T04:57:46;15.60;;;6.97;;
65053;SDS011;51639;47.828;35.038;2023-03-03T05:28:17;13.43;;;7.17;;
65053;SDS011;51639;47.828;35.038;2023-03-03T05:43:19;16.73;;;8.07;;
65053;SDS011;51639;47.828;35.038;2023-03-03T05:58:21;16.67;;;7.30;;
65053;SDS011;51639;47.828;35.038;2023-03-03T06:13:24;15.77;;;7.30;;
65053;SDS011;51639;47.828;35.038;2023-03-03T06:28:27;17.87;;;8.47;;
65053;SDS011;51639;47.828;35.038;2023-03-03T06:43:29;13.83;;;5.20;;
65053;SDS011;51639;47.828;35.038;2023-03-03T06:58:31;11.17;;;4.90;;
65053;SDS011;51639;47.828;35.038;2023-03-03T07:13:36;15.27;;;6.90;;
65053;SDS011;51639;47.828;35.038;2023-03-03T07:28:52;9.60;;;5.23;;
65053;SDS011;51639;47.828;35.038;2023-03-03T07:44:04;14.40;;;4.93;;
65053;SDS011;51639;47.828;35.038;2023-03-03T07:59:19;14.73;;;5.70;;
65053;SDS011;51639;47.828;35.038;2023-03-03T08:14:27;10.83;;;4.70;;
65053;SDS011;51639;47.828;35.038;2023-03-03T08:29:31;12.80;;;5.53;;
65053;SDS011;51639;47.828;35.038;2023-03-03T08:44:33;17.57;;;5.93;;
65053;SDS011;51639;47.828;35.038;2023-03-03T08:59:35;13.43;;;6.37;;
65053;SDS011;51639;47.828;35.038;2023-03-03T09:14:39;12.37;;;5.40;;
65053;SDS011;51639;47.828;35.038;2023-03-03T09:29:41;18.00;;;7.07;;
65053;SDS011;51639;47.828;35.038;2023-03-03T09:45:00;12.43;;;6.17;;
65053;SDS011;51639;47.828;35.038;2023-03-03T10:00:29;10.67;;;4.90;;
65053;SDS011;51639;47.828;35.038;2023-03-03T10:15:56;12.77;;;4.53;;
65053;SDS011;51639;47.828;35.038;2023-03-03T11:01:55;9.93;;;4.27;;
65053;SDS011;51639;47.828;35.038;2023-03-03T11:17:15;8.07;;;3.83;;
65053;SDS011;51639;47.828;35.038;2023-03-03T11:47:57;6.17;;;3.80;;
65053;SDS011;51639;47.828;35.038;2023-03-03T12:33:51;9.57;;;5.43;;
65053;SDS011;51639;47.828;35.038;2023-03-03T12:48:57;12.43;;;5.60;;
65053;SDS011;51639;47.828;35.038;2023-03-03T13:19:34;13.50;;;6.60;;
65053;SDS011;51639;47.828;35.038;2023-03-03T13:34:50;10.87;;;5.47;;
65053;SDS011;51639;47.828;35.038;2023-03-03T14:06:02;8.23;;;5.47;;
65053;SDS011;51639;47.828;35.038;2023-03-03T14:21:13;9.03;;;5.43;;
65053;SDS011;51639;47.828;35.038;2023-03-03T14:36:19;11.37;;;6.33;;
65053;SDS011;51639;47.828;35.038;2023-03-03T14:51:46;15.53;;;6.40;;
65053;SDS011;51639;47.828;35.038;2023-03-03T15:06:53;13.20;;;5.73;;
65053;SDS011;51639;47.828;35.038;2023-03-03T16:38:39;23.13;;;7.97;;
65053;SDS011;51639;47.828;35.038;2023-03-03T16:53:52;19.93;;;7.37;;
65053;SDS011;51639;47.828;35.038;2023-03-03T17:40:21;16.87;;;8.20;;
65053;SDS011;51639;47.828;35.038;2023-03-03T18:11:01;12.23;;;6.47;;
65053;SDS011;51639;47.828;35.038;2023-03-03T18:26:29;12.63;;;7.00;;
65053;SDS011;51639;47.828;35.038;2023-03-03T18:57:13;11.77;;;6.93;;
65053;SDS011;51639;47.828;35.038;2023-03-03T19:12:17;23.17;;;9.63;;
65053;SDS011;51639;47.828;35.038;2023-03-03T20:14:02;24.43;;;10.40;;
65053;SDS011;51639;47.828;35.038;2023-03-03T20:29:30;17.57;;;8.93;;
65053;SDS011;51639;47.828;35.038;2023-03-03T21:15:32;16.57;;;8.90;;
65053;SDS011;51639;47.828;35.038;2023-03-03T21:30:57;16.60;;;8.87;;
65053;SDS011;51639;47.828;35.038;2023-03-03T21:46:01;20.83;;;10.83;;
65053;SDS011;51639;47.828;35.038;2023-03-03T22:01:04;16.30;;;8.93;;
65053;SDS011;51639;47.828;35.038;2023-03-03T22:16:06;21.70;;;11.17;;
65053;SDS011;51639;47.828;35.038;2023-03-03T22:31:09;19.47;;;9.30;;
65053;SDS011;51639;47.828;35.038;2023-03-03T22:46:11;20.30;;;10.00;;
65053;SDS011;51639;47.828;35.038;2023-03-03T23:01:13;22.73;;;10.30;;
65053;SDS011;51639;47.828;35.038;2023-03-03T23:16:15;18.60;;;8.63;;
65053;SDS011;51639;47.828;35.038;2023-03-03T23:31:17;17.73;;;7.73;;
65053;SDS011;51639;47.828;35.038;2023-03-03T23:46:19;17.37;;;8.47;;
